EHGR/GLZ METAR and TAF weather

Enter ICAO airport designator
Station Type Date Time Source
EHGR METAR 2022/01/29 01:25 UTC NOAA

EHGR 290125Z AUTO 22009KT 200V260 4100 BR BKN006 BKN008 OVC009 07/05 Q1028 YLO


Station Type Date Time Source
EHGR Decoded METAR 2022/01/29 01:25 UTC NOAA

Gilze-Rijen, Netherlands (EHGR) 51-34N 004-56E 24M
Jan 28, 2022 - 08:25 PM EST / 2022.01.29 0125 UTC
Wind: from the SW (220 degrees) at 10 MPH (9 KT) (direction variable):0
Visibility: 2 mile(s):0
Sky conditions: overcast
Weather: mist
Temperature: 44 F (7 C)
Dew Point: 41 F (5 C)
Relative Humidity: 87%
Pressure (altimeter): 30.36 in. Hg (1028 hPa)
ob: EHGR 290125Z AUTO 22009KT 200V260 4100 BR BKN006 BKN008 OVC009 07/05 Q1028 YLO
cycle: 1

Station Type Date Time Source
EHGR TAF 2022/01/28 14:21 UTC NOAA

TAF TAF EHGR 281312Z 2814/2902 25007KT 9999 SCT018
BECMG 2814/2816 24010KT SCT008 BKN015

Example: see airport list